Wetterdaten: August 2019
Datum Temp Feuchte Luftdruck Regen Wind Richtung Sonnenschein UV Solar Windben
01.08.2019 18,8 C 70 % 1015,4 hPa 0,0 l/m 1,1 km/h S-SW 6,00 h 2,6 UV-I 302 W/m 4,4 km/h
02.08.2019 17,5 C 83 % 1013,2 hPa 14,6 l/m 0,6 km/h N 7,00 h 2,9 UV-I 352 W/m 4,4 km/h
03.08.2019 18,2 C 76 % 1015,4 hPa 0,2 l/m 0,9 km/h NW 5,25 h 2,8 UV-I 303 W/m 4,4 km/h
04.08.2019 19,4 C 72 % 1014,4 hPa 0,0 l/m 0,3 km/h N-NW 9,67 h 3,3 UV-I 404 W/m 2,0 km/h
05.08.2019 21,5 C 65 % 1009,5 hPa 1,4 l/m 0,4 km/h S 4,33 h 2,4 UV-I 267 W/m 4,4 km/h
06.08.2019 20,5 C 69 % 1008,0 hPa 0,2 l/m 1,5 km/h N 5,75 h 2,5 UV-I 286 W/m 5,2 km/h
07.08.2019 19,9 C 65 % 1006,3 hPa 3,4 l/m 1,0 km/h N 4,67 h 2,4 UV-I 247 W/m 6,9 km/h
08.08.2019 18,4 C 70 % 1010,7 hPa 0,2 l/m 2,8 km/h N 9,92 h 2,8 UV-I 378 W/m 7,2 km/h
09.08.2019 19,4 C 85 % 1007,8 hPa 0,8 l/m 7,7 km/h S-SO 1,92 h 1,9 UV-I 182 W/m 14,1 km/h
10.08.2019 20,7 C 62 % 1010,6 hPa 0,2 l/m 13,2 km/h S-SW 5,50 h 2,7 UV-I 284 W/m 22,9 km/h
11.08.2019 18,0 C 65 % 1013,3 hPa 0,0 l/m 1,6 km/h N 5,75 h 2,9 UV-I 279 W/m 5,6 km/h
12.08.2019 16,8 C 76 % 1013,9 hPa 1,2 l/m 0,9 km/h S-SW 5,75 h 2,6 UV-I 287 W/m 5,6 km/h
13.08.2019 13,7 C 80 % 1016,3 hPa 1,8 l/m 1,9 km/h N 4,50 h 2,6 UV-I 296 W/m 7,2 km/h
14.08.2019 13,9 C 73 % 1016,0 hPa 0,2 l/m 0,0 km/h S-SW 6,92 h 2,5 UV-I 309 W/m 0,0 km/h
15.08.2019 16,5 C 82 % 1010,6 hPa 5,6 l/m 5,4 km/h S-SO 0,67 h 1,3 UV-I 122 W/m 16,5 km/h
16.08.2019 15,9 C 80 % 1014,3 hPa 0,4 l/m 0,1 km/h S-SW 5,08 h 2,6 UV-I 300 W/m 0,4 km/h
17.08.2019 18,3 C 81 % 1007,8 hPa 1,4 l/m 7,4 km/h S 2,25 h 2,1 UV-I 200 W/m 13,7 km/h
18.08.2019 16,7 C 94 % 1006,4 hPa 9,8 l/m 0,6 km/h N 0,58 h 1,5 UV-I 116 W/m 2,4 km/h
19.08.2019 14,9 C 77 % 1016,1 hPa 0,0 l/m 1,7 km/h S-SW 6,33 h 2,5 UV-I 318 W/m 8,5 km/h
20.08.2019 16,1 C 70 % 1022,6 hPa 0,0 l/m 0,8 km/h N 7,67 h 2,4 UV-I 296 W/m 5,2 km/h
21.08.2019 14,2 C 74 % 1027,2 hPa 0,0 l/m 0,3 km/h N 10,17 h 2,8 UV-I 391 W/m 2,0 km/h
22.08.2019 16,8 C 69 % 1025,0 hPa 0,0 l/m 2,7 km/h S 10,83 h 3,1 UV-I 402 W/m 6,0 km/h
23.08.2019 17,8 C 66 % 1024,0 hPa 0,0 l/m 0,6 km/h S-SO 10,83 h 3,1 UV-I 406 W/m 2,8 km/h
24.08.2019 20,3 C 57 % 1020,2 hPa 0,0 l/m 3,6 km/h SO 10,83 h 3,1 UV-I 407 W/m 10,1 km/h
25.08.2019 23,4 C 69 % 1018,0 hPa 0,0 l/m 0,0 km/h SO 10,33 h 2,9 UV-I 375 W/m 0,0 km/h
26.08.2019 23,6 C 66 % 1016,5 hPa 0,0 l/m 1,7 km/h SO 10,42 h 2,9 UV-I 375 W/m 4,4 km/h
27.08.2019 23,5 C 69 % 1014,2 hPa 0,0 l/m 1,8 km/h S-SO 8,33 h 3,0 UV-I 342 W/m 5,6 km/h
28.08.2019 20,8 C 80 % 1012,9 hPa 3,0 l/m 3,8 km/h S-SO 5,00 h 2,3 UV-I 269 W/m 5,6 km/h
29.08.2019 19,4 C 85 % 1018,3 hPa 3,0 l/m 1,1 km/h NW 6,00 h 2,6 UV-I 292 W/m 4,4 km/h
30.08.2019 18,6 C 82 % 1020,9 hPa 0,0 l/m 0,0 km/h N-NW 6,92 h 2,5 UV-I 306 W/m 0,0 km/h
31.08.2019 21,8 C 73 % 1011,1 hPa 0,0 l/m 4,3 km/h S-SO 11,00 h 2,9 UV-I 381 W/m 7,3 km/h
Min-Datum 21.08.19 23.08.19 18.08.19 17 Tage 01.08.19 - - - - 01.08.19
Min-Zeit 06:40 15:45 14:30 - 00:00 - - - - 00:00
Minimum 7,8 C 33 % 1003,0 hPa - 0,0 km/h - - - - 0,0 km/h
Max-Datum 28.08.19 03.08.19 21.08.19 02.08.19 10.08.19 - 31.08.19 10.08.19 10.08.19 10.08.19
Max-Zeit 13:50 07:40 10:45 21:30 11:00 - 19:05 13:10 12:55 14:20
Maximum 32,1 C 97 % 1028,2 hPa 14,6 l/m 29,2 km/h
S-SW
- 10,92 h 7,4 UV-I 1097 W/m 53,1 km/h
S-SW
Durchschnitt 18,6 C 74 % 1014,7 hPa #47,4 l/m 2,3 km/h S #206:10 h 2,6 UV-I 306 W/m 6,1 km/h

Durchschnitt Minimum Temp.12,9 C
Durchschnitt Maximum Temp.25,1 C